Other Surface Observations
Issued by NWS Great Falls, MT

Home | Current Version | Previous Version | Text Only | Print | Product List | Glossary On
Versions: 1 2 3 4 5 6 7 8 9 10 11 12 13 14 15 16 17 18 19 20 21 22 23 24 25 26 27 28 29 30 31 32 33 34 35 36 37 38 39 40 41 42 43 44 45 46 47 48 49 50
000
SXUS55 KTFX 222129
OSOTFX
AREA AWOS OBSERVATIONS
NATIONAL WEATHER SERVICE GREAT FALLS MT
0329 PM MDT TUE AUG 22 2017

METAR KPWD 222130Z AUTO 00000KT 10SM 26/03 A3012 RMK PLENTYWOOD
METAR KS71 222130Z AUTO 03005KT 10SM 29/04 A3005 RMK CHINOOK
METAR K38S 222130Z AUTO 35003KT 10SM 29/01 A3016 RMK DEER LODGE
METAR K3U3 222130Z AUTO 03006KT 10SM 29/04 A3015 RMK ANACONDA
METAR K6S5 222130Z AUTO 36004KT 8SM 28/07 A3009 RMK HAMILTON
METAR KS59 222130Z AUTO 06004KT 10SM 33/03 A2999 RMK LIBBY
METAR K88M 222130Z AUTO 10SM 32/05 A3002 RMK EUREKA



USA.gov is the U.S. government's official web portal to all federal, state and local government web resources and services.